createdAt,value
2019-06-10T18:43:58.058Z,55.62
2019-06-10T18:47:14.937Z,55.22
2019-06-10T18:50:33.417Z,57.60
2019-06-10T18:53:50.707Z,54.75
2019-06-10T18:57:08.265Z,56.03
2019-06-10T19:00:26.106Z,56.29
2019-06-10T19:03:43.300Z,56.71
2019-06-10T19:07:02.768Z,58.53
2019-06-10T19:10:19.838Z,58.20
2019-06-10T19:13:37.517Z,58.67
2019-06-10T19:16:55.204Z,60.59
2019-06-10T19:20:13.022Z,62.22
2019-06-10T19:23:30.318Z,62.78
2019-06-10T19:26:47.120Z,63.62
2019-06-10T19:30:03.865Z,63.44
2019-06-10T19:33:20.607Z,65.12
2019-06-10T19:36:37.726Z,65.31
2019-06-10T19:39:55.301Z,65.87
2019-06-10T19:43:12.401Z,66.48
2019-06-10T19:46:29.087Z,67.08
2019-06-10T19:49:45.797Z,68.69
2019-06-10T19:53:02.803Z,71.44
2019-06-10T19:56:22.490Z,71.54
2019-06-10T20:00:03.071Z,71.97
2019-06-10T20:02:57.927Z,72.74
2019-06-10T20:06:14.712Z,74.62
2019-06-10T20:09:32.928Z,75.00
2019-06-10T20:12:50.350Z,75.67
2019-06-10T20:16:09.021Z,76.01
2019-06-10T20:19:25.903Z,77.34
2019-06-10T20:22:47.041Z,77.33
2019-06-10T20:26:08.097Z,78.29
2019-06-10T20:29:24.978Z,79.16
2019-06-10T20:32:46.487Z,80.19
2019-06-10T20:36:03.393Z,80.78
2019-06-10T20:39:24.457Z,82.83
2019-06-10T20:42:40.234Z,83.70
2019-06-10T20:45:58.297Z,85.24
2019-06-10T20:49:15.111Z,84.56
2019-06-10T20:52:35.408Z,85.03
2019-06-10T20:55:56.923Z,84.95
2019-06-10T20:59:13.067Z,84.46
2019-06-10T21:02:32.630Z,84.11
2019-06-10T21:05:53.275Z,84.26
2019-06-10T21:09:09.599Z,86.22
2019-06-10T21:12:26.389Z,86.41
